Time;durP1;ratioP1;P1;durP2;ratioP2;P2;SDS_P1;SDS_P2;PMS_P1;PMS_P2;Temp;Humidity;BMP_temperature;BMP_pressure;BME280_temperature;BME280_humidity;BME280_pressure;Samples;Min_cycle;Max_cycle;Signal;HPM_P1;HPM_P2
2023/01/02 00:00:40;;;;;;;18.33;8.50;;;;;;;-146.25;100.00;52384.41;2087738;28;42120;-70
2023/01/02 00:01:42;;;;;;;16.40;8.43;;;;;;;-146.25;100.00;52325.63;2071595;28;36259;-70
2023/01/02 00:02:44;;;;;;;14.32;7.32;;;;;;;-146.25;100.00;52370.22;2070907;28;41384;-69
2023/01/02 00:03:45;;;;;;;15.00;8.35;;;;;;;-146.25;100.00;52370.22;2079480;28;34748;-69
2023/01/02 00:04:47;;;;;;;15.50;8.38;;;;;;;-146.25;100.00;52418.88;2079928;28;20049;-70
2023/01/02 00:05:49;;;;;;;15.35;8.98;;;;;;;-146.25;100.00;52396.59;2080310;28;20919;-69
2023/01/02 00:06:51;;;;;;;16.67;9.55;;;;;;;-146.25;100.00;52347.91;2078099;28;37812;-70
2023/01/02 00:07:54;;;;;;;14.55;9.18;;;;;;;-146.25;100.00;52360.09;2080255;28;20046;-69
2023/01/02 00:08:56;;;;;;;19.90;10.00;;;;;;;-146.25;100.00;52360.09;2084373;28;36570;-69
2023/01/02 00:09:57;;;;;;;17.08;10.00;;;;;;;-146.25;100.00;52402.66;2085041;28;39210;-69
2023/01/02 00:10:59;;;;;;;16.92;9.45;;;;;;;-146.25;100.00;52380.38;2086991;28;39201;-70
2023/01/02 00:12:01;;;;;;;15.65;10.45;;;;;;;-146.25;100.00;52335.75;2087553;28;42945;-70
2023/01/02 00:13:03;;;;;;;19.25;10.77;;;;;;;-146.25;100.00;52388.47;2087641;28;37791;-69
2023/01/02 00:14:04;;;;;;;17.63;10.40;;;;;;;-146.25;100.00;52351.97;2087877;28;36715;-69
2023/01/02 00:15:07;;;;;;;18.77;10.35;;;;;;;-146.25;100.00;52420.91;2087798;28;38196;-69
2023/01/02 00:16:08;;;;;;;16.48;10.30;;;;;;;-146.25;100.00;52331.69;2083218;28;20048;-69
2023/01/02 00:17:10;;;;;;;15.30;10.30;;;;;;;-146.25;100.00;52390.50;2080973;28;42080;-69
2023/01/02 00:18:12;;;;;;;16.77;10.57;;;;;;;-146.25;100.00;52358.06;2079744;28;38991;-69
2023/01/02 00:19:13;;;;;;;18.63;11.15;;;;;;;-146.25;100.00;52335.75;2087203;28;33429;-69
2023/01/02 00:20:15;;;;;;;18.67;11.43;;;;;;;-146.25;100.00;52333.72;2088014;28;36029;-70
2023/01/02 00:21:18;;;;;;;18.40;11.32;;;;;;;-146.25;100.00;52408.75;2074328;28;20046;-69
2023/01/02 00:22:20;;;;;;;18.92;10.88;;;;;;;-146.25;100.00;52422.94;2070850;28;34609;-69
2023/01/02 00:23:21;;;;;;;15.85;10.95;;;;;;;-146.25;100.00;52388.47;2070765;28;40840;-69
2023/01/02 00:24:23;;;;;;;19.23;11.50;;;;;;;-146.25;100.00;52396.59;2077782;28;41180;-69
2023/01/02 00:25:25;;;;;;;19.38;11.48;;;;;;;-146.25;100.00;52408.75;2087639;28;40532;-69
2023/01/02 00:26:28;;;;;;;15.50;10.18;;;;;;;-146.25;100.00;52376.31;2088598;28;22842;-69
2023/01/02 00:27:30;;;;;;;16.02;10.68;;;;;;;-146.25;100.00;52372.25;2073667;28;33019;-69
2023/01/02 00:28:32;;;;;;;17.30;11.25;;;;;;;-146.25;100.00;52380.38;2063188;28;34914;-69
2023/01/02 00:29:34;;;;;;;19.35;11.25;;;;;;;-146.25;100.00;52400.63;2071797;28;20035;-69
2023/01/02 00:30:37;;;;;;;16.30;11.52;;;;;;;-146.25;100.00;52390.50;2079252;28;41471;-69
2023/01/02 00:31:39;;;;;;;16.05;10.60;;;;;;;-146.25;100.00;52396.59;2079405;28;40540;-69
2023/01/02 00:32:41;;;;;;;16.92;10.73;;;;;;;-146.25;100.00;52360.09;2079967;28;30700;-67
2023/01/02 00:33:43;;;;;;;19.63;11.85;;;;;;;-146.25;100.00;52362.13;2078471;28;39248;-69
2023/01/02 00:34:47;;;;;;;15.13;11.05;;;;;;;-146.25;100.00;52374.28;2078542;28;31309;-69
2023/01/02 00:35:48;;;;;;;18.17;11.50;;;;;;;-146.25;100.00;52398.59;2078669;28;34517;-70
2023/01/02 00:36:50;;;;;;;16.98;11.02;;;;;;;-146.25;100.00;52362.13;2088259;28;20147;-69
2023/01/02 00:37:52;;;;;;;15.20;11.32;;;;;;;-146.25;100.00;52396.59;2087853;28;36203;-69
2023/01/02 00:38:57;;;;;;;17.80;11.07;;;;;;;-146.25;100.00;52410.78;2087864;28;37895;-68
2023/01/02 00:39:59;;;;;;;17.48;12.27;;;;;;;-146.25;100.00;52376.31;2079098;28;38420;-69
2023/01/02 00:41:03;;;;;;;17.85;11.30;;;;;;;-146.25;100.00;52390.50;2069000;28;41491;-69
2023/01/02 00:42:05;;;;;;;19.30;11.73;;;;;;;-146.25;100.00;52388.47;2068965;28;38446;-69
2023/01/02 00:43:07;;;;;;;17.48;11.98;;;;;;;-146.25;100.00;52386.44;2070291;28;36279;-69
2023/01/02 00:44:08;;;;;;;15.57;11.52;;;;;;;-146.25;100.00;52396.59;2070892;28;37132;-69
2023/01/02 00:45:10;;;;;;;18.42;11.30;;;;;;;-146.25;100.00;52382.38;2078920;28;36573;-69
2023/01/02 00:46:13;;;;;;;17.23;11.73;;;;;;;-146.25;100.00;52376.31;2078781;28;20040;-69
2023/01/02 00:47:17;;;;;;;16.08;10.40;;;;;;;-146.25;100.00;52400.63;2069269;28;39015;-69
2023/01/02 00:48:19;;;;;;;15.50;10.35;;;;;;;-146.25;100.00;52343.88;2072833;28;39862;-69
2023/01/02 00:49:21;;;;;;;13.55;10.57;;;;;;;-146.25;100.00;52368.19;2077354;28;39465;-70
2023/01/02 00:50:22;;;;;;;16.55;10.65;;;;;;;-146.25;100.00;52376.31;2079407;28;38135;-69
2023/01/02 00:51:24;;;;;;;18.98;10.32;;;;;;;-146.25;100.00;52378.34;2079517;28;34087;-69
2023/01/02 00:52:26;;;;;;;15.13;10.27;;;;;;;-146.25;100.00;52368.19;2079076;28;39059;-69
2023/01/02 00:53:27;;;;;;;17.65;10.45;;;;;;;-146.25;100.00;52376.31;2080329;28;20042;-69
2023/01/02 00:54:29;;;;;;;17.52;10.27;;;;;;;-146.25;100.00;52354.00;2078384;28;39689;-69
2023/01/02 00:55:31;;;;;;;17.92;10.23;;;;;;;-146.25;100.00;52388.47;2082508;28;39600;-69
2023/01/02 00:56:32;;;;;;;19.90;10.00;;;;;;;-146.25;100.00;52396.59;2087906;28;37314;-70
2023/01/02 00:57:34;;;;;;;16.88;10.40;;;;;;;-146.25;100.00;52388.47;2087706;28;38680;-69
2023/01/02 00:58:36;;;;;;;13.77;9.88;;;;;;;-146.25;100.00;52408.75;2087828;28;24774;-69
2023/01/02 00:59:37;;;;;;;17.73;9.95;;;;;;;-146.25;100.00;52386.44;2087942;28;37585;-70
2023/01/02 01:00:43;;;;;;;13.15;8.57;;;;;;;-146.25;100.00;52390.50;2079213;28;20034;-69
2023/01/02 01:01:45;;;;;;;14.32;9.23;;;;;;;-146.25;100.00;52370.22;2079507;28;37678;-68
2023/01/02 01:02:47;;;;;;;13.73;9.23;;;;;;;-146.25;100.00;52420.91;2080736;28;20061;-69
2023/01/02 01:03:49;;;;;;;13.90;8.98;;;;;;;-146.25;100.00;52372.25;2086840;28;35950;-70
2023/01/02 01:04:51;;;;;;;12.07;8.25;;;;;;;-146.25;100.00;52384.41;2078465;28;38751;-69
2023/01/02 01:05:52;;;;;;;18.80;8.82;;;;;;;-146.25;100.00;52378.34;2079481;28;39118;-69
2023/01/02 01:06:54;;;;;;;14.43;9.18;;;;;;;-146.25;100.00;52376.31;2079339;28;37509;-69
2023/01/02 01:07:57;;;;;;;14.10;8.82;;;;;;;-146.25;100.00;52396.59;2079531;28;36257;-69
2023/01/02 01:08:58;;;;;;;13.23;9.30;;;;;;;-146.25;100.00;52384.41;2079472;28;38713;-69
2023/01/02 01:10:00;;;;;;;17.35;9.05;;;;;;;-146.25;100.00;52394.56;2078258;28;36768;-69
2023/01/02 01:11:11;;;;;;;15.85;9.45;;;;;;;-146.25;100.00;52368.19;2083326;28;34915;-69
2023/01/02 01:12:13;;;;;;;16.63;10.10;;;;;;;-146.25;100.00;52384.41;2087870;28;41278;-70
2023/01/02 01:13:14;;;;;;;13.45;9.13;;;;;;;-146.25;100.00;52384.41;2087590;28;37320;-69
2023/01/02 01:14:16;;;;;;;17.05;9.50;;;;;;;-146.25;100.00;52427.00;2078711;28;41176;-69
2023/01/02 01:15:18;;;;;;;16.35;9.00;;;;;;;-146.25;100.00;52380.38;2071351;28;34894;-69
2023/01/02 01:16:21;;;;;;;16.70;11.48;;;;;;;-146.25;100.00;52374.28;2087743;28;39330;-69
2023/01/02 01:17:23;;;;;;;15.95;11.48;;;;;;;-146.25;100.00;52388.47;2088793;28;41819;-69
2023/01/02 01:18:25;;;;;;;15.40;11.57;;;;;;;-146.25;100.00;52370.22;2089268;28;39718;-69
2023/01/02 01:19:31;;;;;;;14.80;10.30;;;;;;;-146.25;100.00;52364.13;2085781;28;41139;-70
2023/01/02 01:20:37;;;;;;;19.63;10.75;;;;;;;-146.25;100.00;52424.97;2080244;28;39304;-70
2023/01/02 01:21:39;;;;;;;17.27;11.02;;;;;;;-146.25;100.00;52406.72;2081037;28;20522;-70
2023/01/02 01:22:41;;;;;;;17.38;11.18;;;;;;;-146.25;100.00;52392.53;2080467;28;36669;-70
2023/01/02 01:23:43;;;;;;;15.60;10.25;;;;;;;-146.25;100.00;52370.22;2080996;28;32303;-69
2023/01/02 01:24:47;;;;;;;15.88;9.70;;;;;;;-146.25;100.00;52398.59;2080516;28;37707;-70
2023/01/02 01:25:49;;;;;;;15.43;9.35;;;;;;;-146.25;100.00;52347.91;2079760;28;37007;-69
2023/01/02 01:26:51;;;;;;;14.68;9.20;;;;;;;-146.25;100.00;52406.72;2081211;28;20679;-70
2023/01/02 01:27:53;;;;;;;13.27;9.30;;;;;;;-146.25;100.00;52412.81;2080896;28;39024;-70
2023/01/02 01:28:55;;;;;;;14.13;9.15;;;;;;;-146.25;100.00;52368.19;2080723;28;36974;-70
2023/01/02 01:29:57;;;;;;;15.68;9.05;;;;;;;-146.25;100.00;52376.31;2080800;28;20073;-70
2023/01/02 01:31:07;;;;;;;12.57;8.52;;;;;;;-146.25;100.00;52388.47;2089002;28;42719;-69
2023/01/02 01:32:09;;;;;;;15.43;8.80;;;;;;;-146.25;100.00;52380.38;2089037;28;37457;-70
2023/01/02 01:33:14;;;;;;;17.02;8.80;;;;;;;-146.25;100.00;52404.69;2087305;28;38327;-70
2023/01/02 01:34:15;;;;;;;15.23;8.75;;;;;;;-146.25;100.00;52388.47;2072838;28;31832;-70
2023/01/02 01:35:17;;;;;;;14.25;8.38;;;;;;;-146.25;100.00;52384.41;2072799;28;35263;-70
2023/01/02 01:36:25;;;;;;;17.50;8.68;;;;;;;-146.25;100.00;52388.47;2072286;28;42155;-70
2023/01/02 01:37:27;;;;;;;12.27;7.90;;;;;;;-146.25;100.00;52388.47;2072167;28;38774;-69
2023/01/02 01:38:30;;;;;;;17.83;8.75;;;;;;;-146.25;100.00;52394.56;2071735;28;39304;-69
2023/01/02 01:39:32;;;;;;;13.45;8.00;;;;;;;-146.25;100.00;52390.50;2072441;28;34458;-70
2023/01/02 01:40:40;;;;;;;14.05;8.32;;;;;;;-146.25;100.00;52414.84;2073999;28;20042;-68
2023/01/02 01:41:42;;;;;;;13.32;8.13;;;;;;;-146.25;100.00;52382.38;2080910;28;39901;-70
2023/01/02 01:42:44;;;;;;;15.88;8.85;;;;;;;-146.25;100.00;52392.53;2081740;28;37736;-70
2023/01/02 01:43:59;;;;;;;14.15;8.30;;;;;;;-146.25;100.00;52384.41;2089331;28;22670;-68
2023/01/02 01:45:02;;;;;;;13.15;8.27;;;;;;;-146.25;100.00;52376.31;2088993;28;37749;-70
2023/01/02 01:46:41;;;;;;;18.67;8.15;;;;;;;-146.25;100.00;52402.66;2071891;28;36175;-70
2023/01/02 01:47:52;;;;;;;15.85;7.13;;;;;;;-146.25;100.00;52392.53;2077450;28;40212;-70
2023/01/02 01:49:27;;;;;;;16.95;8.15;;;;;;;-146.25;100.00;52402.66;2076140;28;39660;-70
2023/01/02 01:50:34;;;;;;;12.18;7.15;;;;;;;-146.25;100.00;52420.91;2088346;28;42606;-70
2023/01/02 01:51:53;;;;;;;11.48;7.80;;;;;;;-146.25;100.00;52370.22;2076250;28;37515;-70
2023/01/02 01:53:17;;;;;;;;;;;;;;;-146.25;100.00;52372.25;2076327;28;20045;-69
2023/01/02 01:54:30;;;;;;;20.35;7.18;;;;;;;-146.25;100.00;52372.25;2080029;28;38707;-70
2023/01/02 01:55:38;;;;;;;18.42;7.70;;;;;;;-146.25;100.00;52380.38;2072047;28;40229;-68
2023/01/02 01:56:49;;;;;;;14.88;8.90;;;;;;;-146.25;100.00;52400.63;2064190;28;34659;-69
2023/01/02 01:57:57;;;;;;;20.08;7.93;;;;;;;-146.25;100.00;52420.91;2078823;28;38862;-70
2023/01/02 01:58:59;;;;;;;18.63;7.97;;;;;;;-146.25;100.00;52408.75;2079812;28;42949;-69
2023/01/02 02:00:03;;;;;;;15.15;7.57;;;;;;;-146.25;100.00;52382.38;2081345;28;26235;-69
2023/01/02 02:01:06;;;;;;;14.85;7.75;;;;;;;-146.25;100.00;52410.78;2076044;28;20184;-70
2023/01/02 02:02:08;;;;;;;12.55;7.65;;;;;;;-146.25;100.00;52404.69;2063782;28;37529;-69
2023/01/02 02:03:17;;;;;;;13.55;7.50;;;;;;;-146.25;100.00;52335.75;2071696;28;37215;-70
2023/01/02 02:04:22;;;;;;;13.75;7.80;;;;;;;-146.25;100.00;52388.47;2063676;28;38975;-69
2023/01/02 02:05:29;;;;;;;14.40;8.32;;;;;;;-146.25;100.00;52374.28;2066465;28;20039;-70
2023/01/02 02:06:30;;;;;;;13.77;7.97;;;;;;;-146.25;100.00;52351.97;2069669;28;36933;-69
2023/01/02 02:07:38;;;;;;;15.00;8.20;;;;;;;-146.25;100.00;52368.19;2078489;28;39087;-69
2023/01/02 02:08:57;;;;;;;16.65;7.90;;;;;;;-146.25;100.00;52374.28;2080383;28;20885;-69
2023/01/02 02:10:09;;;;;;;13.68;7.75;;;;;;;-146.25;100.00;52388.47;2073003;28;40022;-69
2023/01/02 02:11:13;;;;;;;17.00;8.30;;;;;;;-146.25;100.00;52378.34;2080082;28;20084;-69
2023/01/02 02:12:16;;;;;;;14.10;7.93;;;;;;;-146.25;100.00;52380.38;2079770;28;39767;-69
2023/01/02 02:13:20;;;;;;;18.90;8.18;;;;;;;-146.25;100.00;52376.31;2089178;28;20042;-69
2023/01/02 02:14:26;;;;;;;11.82;7.90;;;;;;;-146.25;100.00;52390.50;2079091;28;20084;-69
2023/01/02 02:16:06;;;;;;;12.38;7.90;;;;;;;-146.25;100.00;52370.22;2072672;28;38167;-69
2023/01/02 02:17:27;;;;;;;16.92;7.95;;;;;;;-146.25;100.00;52396.59;2088089;28;38927;-69
2023/01/02 02:19:18;;;;;;;17.20;9.55;;;;;;;-146.25;100.00;52378.34;2082066;28;38655;-69
2023/01/02 02:20:33;;;;;;;18.48;8.80;;;;;;;-146.25;100.00;52372.25;2080848;28;35660;-69
2023/01/02 02:21:53;;;;;;;16.45;7.70;;;;;;;-146.25;100.00;52414.84;2071387;28;40687;-69
2023/01/02 02:23:44;;;;;;;13.18;7.50;;;;;;;-146.25;100.00;52368.19;2075549;28;37060;-69
2023/01/02 02:25:01;;;;;;;18.70;7.75;;;;;;;-146.25;100.00;52364.13;2071388;28;38861;-69
2023/01/02 02:26:26;;;;;;;14.80;7.45;;;;;;;-146.25;100.00;52349.94;2078325;28;40736;-69
2023/01/02 02:28:23;;;;;;;12.93;7.20;;;;;;;-146.25;100.00;52364.13;2080254;28;39660;-70
2023/01/02 02:30:01;;;;;;;14.23;7.25;;;;;;;-146.25;100.00;52364.13;2080271;28;43755;-69
2023/01/02 02:31:33;;;;;;;13.90;7.22;;;;;;;-146.25;100.00;52402.66;2078985;28;35275;-70
2023/01/02 02:33:04;;;;;;;12.82;7.53;;;;;;;-146.25;100.00;52392.53;2080100;28;20077;-69
2023/01/02 02:34:29;;;;;;;;;;;;;;;-146.25;100.00;52384.41;2088873;28;41085;-69
2023/01/02 02:35:48;;;;;;;12.23;7.68;;;;;;;-146.25;100.00;52382.38;2088145;28;40701;-69
2023/01/02 02:37:21;;;;;;;13.68;7.53;;;;;;;-146.25;100.00;52370.22;2088211;28;43847;-69
2023/01/02 02:38:57;;;;;;;18.13;8.55;;;;;;;-146.25;100.00;52345.91;2088442;28;37692;-69
2023/01/02 02:40:15;;;;;;;14.55;7.63;;;;;;;-146.25;100.00;52384.41;2088636;28;39039;-69
2023/01/02 02:41:54;;;;;;;13.25;7.72;;;;;;;-146.25;100.00;52398.59;2088574;28;38517;-70
2023/01/02 02:43:33;;;;;;;16.90;7.80;;;;;;;-146.25;100.00;52414.84;2086431;28;20065;-69
2023/01/02 02:45:08;;;;;;;14.68;7.30;;;;;;;-146.25;100.00;52386.44;2088583;28;38143;-69
2023/01/02 02:46:37;;;;;;;11.55;7.38;;;;;;;-146.25;100.00;52394.56;2074148;28;36118;-70
2023/01/02 02:47:59;;;;;;;17.08;7.43;;;;;;;-146.25;100.00;52384.41;2079318;28;20035;-69
2023/01/02 02:49:17;;;;;;;14.15;8.25;;;;;;;-146.25;100.00;52358.06;2079586;28;38597;-70
2023/01/02 02:50:36;;;;;;;15.00;7.95;;;;;;;-146.25;100.00;52368.19;2084359;28;38332;-70
2023/01/02 02:51:54;;;;;;;14.18;7.70;;;;;;;-146.25;100.00;52345.91;2079288;28;41334;-70
2023/01/02 02:53:22;;;;;;;18.75;8.30;;;;;;;-146.25;100.00;52366.16;2077432;28;20046;-69
2023/01/02 02:54:36;;;;;;;12.52;7.30;;;;;;;-146.25;100.00;52372.25;2079838;28;41822;-69
2023/01/02 02:55:49;;;;;;;12.40;7.82;;;;;;;-146.25;100.00;52388.47;2084295;28;20115;-70
2023/01/02 02:56:53;;;;;;;19.10;7.72;;;;;;;-146.25;100.00;52420.91;2071285;28;40936;-70
2023/01/02 02:57:57;;;;;;;17.70;8.60;;;;;;;-146.25;100.00;52382.38;2080484;28;40036;-70
2023/01/02 02:59:00;;;;;;;17.30;7.75;;;;;;;-146.25;100.00;52343.88;2079581;28;20041;-70
2023/01/02 03:00:06;;;;;;;18.95;8.15;;;;;;;-146.25;100.00;52390.50;2070932;28;43439;-70
2023/01/02 03:01:16;;;;;;;15.43;8.32;;;;;;;-146.25;100.00;52400.63;2078571;28;37510;-69
2023/01/02 03:02:19;;;;;;;17.20;7.85;;;;;;;-146.25;100.00;52416.84;2072119;28;20098;-70
2023/01/02 03:03:22;;;;;;;15.75;7.18;;;;;;;-146.25;100.00;52376.31;2071851;28;34873;-69
2023/01/02 03:04:24;;;;;;;14.07;7.68;;;;;;;-146.25;100.00;52380.38;2079344;28;39329;-69
2023/01/02 03:05:36;;;;;;;13.45;7.30;;;;;;;-146.25;100.00;52396.59;2080427;28;37142;-72
2023/01/02 03:07:06;;;;;;;16.50;8.00;;;;;;;-146.25;100.00;52354.00;2071307;28;40152;-70
2023/01/02 03:08:26;;;;;;;16.70;9.55;;;;;;;-146.25;100.00;52398.59;2066376;28;35883;-70
2023/01/02 03:10:03;;;;;;;16.38;8.65;;;;;;;-146.25;100.00;52374.28;2077932;28;44744;-70
2023/01/02 03:11:11;;;;;;;14.52;7.80;;;;;;;-146.25;100.00;52364.13;2088617;28;20046;-70
2023/01/02 03:12:30;;;;;;;16.88;8.07;;;;;;;-146.25;100.00;52400.63;2078482;28;20165;-69
2023/01/02 03:14:00;;;;;;;17.13;8.02;;;;;;;-146.25;100.00;52343.88;2074288;28;34505;-69
2023/01/02 03:15:20;;;;;;;17.98;7.05;;;;;;;-146.25;100.00;52386.44;2081294;28;20041;-70
2023/01/02 03:16:28;;;;;;;14.10;6.68;;;;;;;-146.25;100.00;52400.63;2080875;28;21010;-70
2023/01/02 03:17:38;;;;;;;14.27;7.40;;;;;;;-146.25;100.00;52368.19;2080248;28;43209;-70
2023/01/02 03:18:48;;;;;;;11.55;6.57;;;;;;;-146.25;100.00;52372.25;2087662;28;35924;-70
2023/01/02 03:19:57;;;;;;;16.48;7.20;;;;;;;-146.25;100.00;52370.22;2075396;28;35967;-70
2023/01/02 03:21:15;;;;;;;12.95;7.07;;;;;;;-146.25;100.00;52376.31;2073657;28;39419;-70
2023/01/02 03:22:22;;;;;;;15.02;6.95;;;;;;;-146.25;100.00;52374.28;2069030;28;31459;-68
2023/01/02 03:23:28;;;;;;;13.63;7.10;;;;;;;-146.25;100.00;52351.97;2070758;28;42920;-70
2023/01/02 03:24:32;;;;;;;13.43;6.95;;;;;;;-146.25;100.00;52370.22;2068275;28;20885;-69
2023/01/02 03:25:35;;;;;;;13.80;6.95;;;;;;;-146.25;100.00;52376.31;2072351;28;37709;-70
2023/01/02 03:26:43;;;;;;;13.27;7.07;;;;;;;-146.25;100.00;52398.59;2070707;28;20981;-69
2023/01/02 03:27:49;;;;;;;16.63;7.20;;;;;;;-146.25;100.00;52410.78;2077632;28;34351;-70
2023/01/02 03:28:57;;;;;;;14.18;6.38;;;;;;;-146.25;100.00;52388.47;2087339;28;42201;-69
2023/01/02 03:30:21;;;;;;;17.85;6.95;;;;;;;-146.25;100.00;52362.13;2079037;28;38645;-69
2023/01/02 03:31:27;;;;;;;16.92;7.28;;;;;;;-146.25;100.00;52392.53;2074975;28;39245;-70
2023/01/02 03:32:48;;;;;;;16.48;6.90;;;;;;;-146.25;100.00;52378.34;2082573;28;20030;-69
2023/01/02 03:34:14;;;;;;;22.55;6.40;;;;;;;-146.25;100.00;52384.41;2079461;28;41565;-70
2023/01/02 03:35:25;;;;;;;10.32;6.25;;;;;;;-146.25;100.00;52416.84;2086182;28;20514;-70
2023/01/02 03:36:30;;;;;;;15.77;6.55;;;;;;;-146.25;100.00;52408.75;2079912;28;33637;-69
2023/01/02 03:37:36;;;;;;;15.88;6.93;;;;;;;-146.25;100.00;52368.19;2072880;28;38887;-70
2023/01/02 03:38:50;;;;;;;14.32;7.00;;;;;;;-146.25;100.00;52368.19;2075840;28;40809;-70
2023/01/02 03:39:58;;;;;;;20.02;6.88;;;;;;;-146.25;100.00;52400.63;2079862;28;39885;-70
2023/01/02 03:41:31;;;;;;;15.82;7.20;;;;;;;-146.25;100.00;52394.56;2079879;28;38780;-69
2023/01/02 03:42:44;;;;;;;18.88;6.55;;;;;;;-146.25;100.00;52388.47;2069123;28;39238;-70
2023/01/02 03:43:49;;;;;;;10.80;6.03;;;;;;;-146.25;100.00;52376.31;2074734;28;44323;-70
2023/01/02 03:45:10;;;;;;;11.52;6.25;;;;;;;-146.25;100.00;52347.91;2079371;28;39586;-70
2023/01/02 03:46:25;;;;;;;11.88;6.70;;;;;;;-146.25;100.00;52351.97;2087641;28;40822;-70
2023/01/02 03:48:08;;;;;;;9.15;6.15;;;;;;;-146.25;100.00;52382.38;2076826;28;20899;-70
2023/01/02 03:49:33;;;;;;;11.88;5.60;;;;;;;-146.25;100.00;52408.75;2071727;28;20072;-70
2023/01/02 03:50:50;;;;;;;10.45;5.68;;;;;;;-146.25;100.00;52394.56;2087596;28;38139;-70
2023/01/02 03:51:55;;;;;;;10.98;6.47;;;;;;;-146.25;100.00;52358.06;2073688;28;43468;-70
2023/01/02 03:53:00;;;;;;;16.63;6.60;;;;;;;-146.25;100.00;52388.47;2068445;28;20862;-70
2023/01/02 03:54:04;;;;;;;15.55;6.68;;;;;;;-146.25;100.00;52378.34;2070123;28;42024;-70
2023/01/02 03:55:07;;;;;;;13.07;6.20;;;;;;;-146.25;100.00;52412.81;2071341;28;39473;-69
2023/01/02 03:56:26;;;;;;;15.15;6.15;;;;;;;-146.25;100.00;52386.44;2079813;28;37929;-69
2023/01/02 03:57:34;;;;;;;14.70;6.20;;;;;;;-146.25;100.00;52388.47;2079950;28;40665;-70
2023/01/02 03:58:58;;;;;;;14.88;6.90;;;;;;;-146.25;100.00;52410.78;2079296;28;32858;-70
2023/01/02 04:00:11;;;;;;;15.98;6.75;;;;;;;-146.25;100.00;52386.44;2087282;28;37966;-70
2023/01/02 04:01:52;;;;;;;9.52;5.90;;;;;;;-146.25;100.00;52408.75;2083917;28;20124;-69
2023/01/02 04:03:06;;;;;;;13.85;6.53;;;;;;;-146.25;100.00;52360.09;2078565;28;20136;-70
2023/01/02 04:04:39;;;;;;;13.55;6.18;;;;;;;-146.25;100.00;52360.09;2079098;28;40224;-70
2023/01/02 04:05:58;;;;;;;15.48;6.20;;;;;;;-146.25;100.00;52360.09;2086347;28;40803;-69
2023/01/02 04:07:09;;;;;;;11.55;6.45;;;;;;;-146.25;100.00;52386.44;2073954;28;36769;-70
2023/01/02 04:09:08;;;;;;;12.73;5.43;;;;;;;-146.25;100.00;52351.97;2082459;28;42509;-69
2023/01/02 04:10:13;;;;;;;11.32;5.78;;;;;;;-146.25;100.00;52384.41;2046494;28;38080;-69
2023/01/02 04:11:19;;;;;;;15.65;6.57;;;;;;;-146.25;100.00;52360.09;2069614;28;43663;-69
2023/01/02 04:12:23;;;;;;;10.15;5.55;;;;;;;-146.25;100.00;52388.47;2079978;28;40358;-69
2023/01/02 04:13:37;;;;;;;10.30;5.80;;;;;;;-146.25;100.00;52416.84;2077752;28;39465;-69
2023/01/02 04:15:11;;;;;;;13.55;6.20;;;;;;;-146.25;100.00;52378.34;2071052;28;40032;-70
2023/01/02 04:16:20;;;;;;;13.48;6.03;;;;;;;-146.25;100.00;52382.38;2077208;28;39783;-69
2023/01/02 04:17:25;;;;;;;12.70;6.20;;;;;;;-146.25;100.00;52378.34;2070954;28;39651;-69
2023/01/02 04:18:36;;;;;;;13.45;6.65;;;;;;;-146.25;100.00;52382.38;2071949;28;36467;-69
2023/01/02 04:19:50;;;;;;;13.02;6.55;;;;;;;-146.25;100.00;52364.13;2073695;28;38710;-69
2023/01/02 04:20:58;;;;;;;13.05;6.57;;;;;;;-146.25;100.00;52333.72;2073172;28;42435;-69
2023/01/02 04:22:06;;;;;;;11.65;6.32;;;;;;;-146.25;100.00;52376.31;2080755;28;37600;-70
2023/01/02 04:23:26;;;;;;;14.02;5.80;;;;;;;-146.25;100.00;52398.59;2080982;28;39954;-70
2023/01/02 04:24:39;;;;;;;15.82;6.18;;;;;;;-146.25;100.00;52414.84;2071140;28;36846;-70
2023/01/02 04:25:53;;;;;;;14.68;6.85;;;;;;;-146.25;100.00;52388.47;2102871;22;42331;-70
2023/01/02 04:27:12;;;;;;;13.93;6.53;;;;;;;-146.25;100.00;52408.75;2065527;28;40380;-70
2023/01/02 04:28:27;;;;;;;15.05;6.53;;;;;;;-146.25;100.00;52376.31;2058311;28;40517;-69
2023/01/02 04:29:30;;;;;;;15.10;6.45;;;;;;;-146.25;100.00;52390.50;2059062;28;39784;-71
2023/01/02 04:30:38;;;;;;;13.82;6.60;;;;;;;-146.25;100.00;52364.13;2056057;28;41403;-70
2023/01/02 04:31:57;;;;;;;11.30;5.70;;;;;;;-146.25;100.00;52364.13;2047969;28;41558;-69
2023/01/02 04:33:05;;;;;;;9.75;6.28;;;;;;;-146.25;100.00;52364.13;2066078;28;39398;-70
2023/01/02 04:34:13;;;;;;;12.85;6.45;;;;;;;-146.25;100.00;52376.31;2071299;28;39720;-70
2023/01/02 04:35:26;;;;;;;11.60;6.60;;;;;;;-146.25;100.00;52392.53;2063566;28;20858;-71
2023/01/02 04:36:28;;;;;;;15.35;7.15;;;;;;;-146.25;100.00;52384.41;2056756;28;45202;-70
2023/01/02 04:37:38;;;;;;;16.95;7.25;;;;;;;-146.25;100.00;52392.53;2069813;28;36265;-70
2023/01/02 04:38:44;;;;;;;15.18;6.82;;;;;;;-146.25;100.00;52368.19;2072463;28;38385;-70
2023/01/02 04:39:46;;;;;;;13.63;7.07;;;;;;;-146.25;100.00;52388.47;2070459;28;39637;-70
2023/01/02 04:40:48;;;;;;;14.15;7.10;;;;;;;-146.25;100.00;52386.44;2071844;28;24626;-70
2023/01/02 04:41:50;;;;;;;17.20;7.55;;;;;;;-146.25;100.00;52388.47;2077681;28;41233;-70
2023/01/02 04:42:52;;;;;;;14.65;7.55;;;;;;;-146.25;100.00;52402.66;2069469;28;34743;-70
2023/01/02 04:43:57;;;;;;;16.45;7.57;;;;;;;-146.25;100.00;52398.59;2062756;28;37988;-70
2023/01/02 04:44:58;;;;;;;13.20;7.68;;;;;;;-146.25;100.00;52402.66;2063307;28;40092;-70
2023/01/02 04:46:00;;;;;;;14.23;7.90;;;;;;;-146.25;100.00;52360.09;2062117;28;35413;-70
2023/01/02 04:47:02;;;;;;;11.52;7.70;;;;;;;-146.25;100.00;52388.47;2069898;28;25614;-70
2023/01/02 04:48:04;;;;;;;16.08;7.70;;;;;;;-146.25;100.00;52372.25;2079468;28;37847;-70
2023/01/02 04:49:07;;;;;;;15.30;7.80;;;;;;;-146.25;100.00;52374.28;2079262;28;40720;-70
2023/01/02 04:50:09;;;;;;;11.93;7.35;;;;;;;-146.25;100.00;52354.00;2079751;28;37989;-70
2023/01/02 04:51:11;;;;;;;16.48;8.15;;;;;;;-146.25;100.00;52400.63;2080199;28;38147;-70
2023/01/02 04:52:13;;;;;;;14.43;7.70;;;;;;;-146.25;100.00;52388.47;2080954;28;39119;-70
2023/01/02 04:53:14;;;;;;;14.65;7.90;;;;;;;-146.25;100.00;52351.97;2080324;28;37378;-70
2023/01/02 04:54:17;;;;;;;14.25;7.70;;;;;;;-146.25;100.00;52398.59;2081444;28;20911;-70
2023/01/02 04:55:18;;;;;;;13.60;7.70;;;;;;;-146.25;100.00;52384.41;2088654;28;40182;-70
2023/01/02 04:56:22;;;;;;;13.98;8.38;;;;;;;-146.25;100.00;52356.03;2088317;28;20053;-70
2023/01/02 04:57:24;;;;;;;14.82;8.40;;;;;;;-146.25;100.00;52410.78;2064123;28;41079;-70
2023/01/02 04:58:26;;;;;;;18.08;8.55;;;;;;;-146.25;100.00;52388.47;2064626;28;38455;-70
2023/01/02 04:59:28;;;;;;;11.40;7.50;;;;;;;-146.25;100.00;52390.50;2073022;28;35409;-71
2023/01/02 05:00:30;;;;;;;16.27;8.75;;;;;;;-146.25;100.00;52345.91;2072896;28;40291;-70
2023/01/02 05:01:32;;;;;;;17.58;8.57;;;;;;;-146.25;100.00;52384.41;2073317;28;20039;-70
2023/01/02 05:02:36;;;;;;;14.23;8.65;;;;;;;-146.25;100.00;52372.25;2072777;28;35456;-70
2023/01/02 05:03:43;;;;;;;13.85;8.43;;;;;;;-146.25;100.00;52364.13;2072338;28;37924;-71
2023/01/02 05:04:45;;;;;;;14.38;8.18;;;;;;;-146.25;100.00;52388.47;2072770;28;37514;-70
2023/01/02 05:05:49;;;;;;;16.20;8.80;;;;;;;-146.25;100.00;52351.97;2073861;28;42997;-71
2023/01/02 05:06:53;;;;;;;14.52;8.45;;;;;;;-146.25;100.00;52372.25;2079792;28;36118;-70
2023/01/02 05:07:56;;;;;;;13.35;8.45;;;;;;;-146.25;100.00;52386.44;2081301;28;39005;-71
2023/01/02 05:09:00;;;;;;;11.77;7.93;;;;;;;-146.25;100.00;52378.34;2089235;28;37485;-71
2023/01/02 05:10:03;;;;;;;17.88;8.60;;;;;;;-146.25;100.00;52406.72;2089490;28;29584;-70
2023/01/02 05:11:06;;;;;;;17.48;9.55;;;;;;;-146.25;100.00;52376.31;2089379;28;20048;-70